Lucerne, MO

6:22 PM CDT on May 03, 2015 (GMT -0500)
Unionville MO | | Change Station
CLOSE
Current Station
Personal Weather Station
Location: Unionville, MO
Elevation: 1053 ft
Nearby Weather Stations

Elev 1053 ft 40.39 °N, 93.06 °W | Updated 7 seconds ago

Partly Cloudy
Partly Cloudy
79.5 °F
Feels Like 80 °F
N
16.8
Wind Variable Wind from SW
Gusts 20.6 mph

Today
High -- | Low -- °F
--% Chance of Precip.
Yesterday
High -- | Low -- °F
Precip. -- in
6:10 AM 8:10 PM
Full, 100% visible
Pressure 29.84 in
Visibility 10.0 miles
Clouds Clear
Heat Index 80 °F
Dew Point 58 °F
Humidity 47%
Rainfall 0.00 in
Snow Depth Not available.
UV 2 out of 12
Pollen 11.40 out of 12
Air Quality Not available.
Flu Activity Sporadic
METAR KTVK 032315Z AUTO 19016G20KT 10SM CLR 27/15 A2984 RMK AO2

More Conditions Fewer Conditions

Pressure 29.84 in
Visibility 10.0 miles
Clouds Clear
Heat Index 80 °F
Dew Point 58 °F
Humidity 47%
Rainfall 0.00 in
Snow Depth Not available.
UV 2 out of 12
Pollen 11.40 out of 12
Air Quality Not available.
Flu Activity Sporadic
METAR KTVK 032315Z AUTO 19016G20KT 10SM CLR 27/15 A2984 RMK AO2

More Conditions Fewer Conditions

Nepal has a long way to go to dig out and rebuild from a devastating earthquake. We have teamed up with several charities and organizations to make contributing to the relief effort as easy as possible.
How you can help: Portlight Strategies | Red Cross

10-Day Weather Forecast

Almanac

Astronomy

May. 03, 2015 Rise Set
Actual Time
Civil Twilight
Nautical Twilight
Astronomical Twilight
Moon
Length of Visible Light
Length of Day
Tomorrow will be .
, % of the Moon is Illuminated

Today's Extremes

State Highs State Lows

Community

WunderPhotos

Upload Photos

1,818,416 photos uploaded!

WunderBlogs® & News

Nearby

Air Quality

  Air Quality AQ Index Pollutant
Not available.

Snow Depth

Station Depth Elevation

Earthquake Activity

City Distance Mag. Time & Date
Minimum magnitude displayed is 2.5.

Coastal Water Temperatures

Place Temperature

Stations

Nearby Weather Stations

Station Location Temp. Windchill Dew Point Humidity Wind Precip. Elev Updated Type